createdAt,value
2023-05-22T00:02:12.859Z,95844.78
2023-05-22T00:04:41.745Z,95856.75
2023-05-22T00:07:10.105Z,95853.75
2023-05-22T00:09:38.421Z,95854.69
2023-05-22T00:12:07.585Z,95855.44
2023-05-22T00:14:37.255Z,95856.38
2023-05-22T00:17:05.932Z,95842.50
2023-05-22T00:19:35.194Z,95846.84
2023-05-22T00:22:05.408Z,95840.19
2023-05-22T00:24:33.679Z,95851.19
2023-05-22T00:27:01.977Z,95848.97
2023-05-22T00:29:30.424Z,95846.94
2023-05-22T00:32:00.053Z,95846.72
2023-05-22T00:34:28.331Z,95850.94
2023-05-22T00:36:56.650Z,95848.59
2023-05-22T00:39:24.939Z,95848.75
2023-05-22T00:41:53.684Z,95847.47
2023-05-22T00:44:23.090Z,95843.38
2023-05-22T00:46:52.050Z,95854.56
2023-05-22T00:49:21.762Z,95843.78
2023-05-22T00:51:50.520Z,95838.31
2023-05-22T00:54:18.864Z,95843.97
2023-05-22T00:56:47.424Z,95844.50
2023-05-22T00:59:15.811Z,95836.38
2023-05-22T01:01:45.224Z,95837.50
2023-05-22T01:04:15.519Z,95843.50
2023-05-22T01:06:47.711Z,95842.50
2023-05-22T01:09:16.356Z,95845.41
2023-05-22T01:11:51.500Z,95847.72
2023-05-22T01:14:28.174Z,95844.53
2023-05-22T01:17:08.805Z,95844.00
2023-05-22T01:19:42.285Z,95856.69
2023-05-22T01:22:21.672Z,95857.44
2023-05-22T01:25:12.932Z,95853.59
2023-05-22T01:28:04.285Z,95848.25
2023-05-22T01:30:49.339Z,95851.72
2023-05-22T01:33:18.227Z,95864.72
2023-05-22T01:35:49.158Z,95859.53
2023-05-22T01:38:18.125Z,95861.06
2023-05-22T01:40:47.220Z,95870.03
2023-05-22T01:43:16.404Z,95869.44
2023-05-22T01:45:46.069Z,95868.97
2023-05-22T01:48:14.377Z,95867.69
2023-05-22T01:50:42.699Z,95874.44
2023-05-22T01:53:14.244Z,95868.06
2023-05-22T01:55:47.523Z,95866.69
2023-05-22T01:58:22.555Z,95880.53
2023-05-22T02:00:54.903Z,95873.13
2023-05-22T02:03:28.705Z,95877.69
2023-05-22T02:06:00.698Z,95870.91
2023-05-22T02:08:29.164Z,95871.41
2023-05-22T02:10:57.937Z,95885.59
2023-05-22T02:13:26.379Z,95879.94
2023-05-22T02:15:56.669Z,95874.53
2023-05-22T02:18:29.466Z,95874.84
2023-05-22T02:20:58.024Z,95883.03
2023-05-22T02:23:26.637Z,95877.56
2023-05-22T02:25:55.510Z,95884.91
2023-05-22T02:28:23.802Z,95878.72
2023-05-22T02:30:52.254Z,95881.59
2023-05-22T02:33:22.120Z,95881.19
2023-05-22T02:35:50.503Z,95873.88
2023-05-22T02:38:18.780Z,95873.25
2023-05-22T02:40:47.156Z,95874.09
2023-05-22T02:43:15.448Z,95874.84
2023-05-22T02:45:43.751Z,95877.06
2023-05-22T02:48:13.286Z,95879.53
2023-05-22T02:50:44.243Z,95877.91
2023-05-22T02:53:14.403Z,95879.56
2023-05-22T02:55:42.735Z,95877.63
2023-05-22T02:58:13.301Z,95865.69
2023-05-22T03:00:41.555Z,95877.66
2023-05-22T03:03:10.018Z,95871.44
2023-05-22T03:05:38.517Z,95878.22
2023-05-22T03:08:08.302Z,95879.06
2023-05-22T03:10:36.925Z,95882.63
2023-05-22T03:13:05.433Z,95875.59
2023-05-22T03:15:33.732Z,95875.91
2023-05-22T03:18:02.375Z,95876.97
2023-05-22T03:20:31.448Z,95875.34
2023-05-22T03:22:59.738Z,95876.25
2023-05-22T03:25:29.346Z,95885.66
2023-05-22T03:27:57.701Z,95885.31
2023-05-22T03:30:26.145Z,95884.50
2023-05-22T03:32:54.581Z,95886.59
2023-05-22T03:35:22.900Z,95886.72
2023-05-22T03:37:51.255Z,95892.44
2023-05-22T03:40:19.600Z,95896.22
2023-05-22T03:42:50.028Z,95889.44
2023-05-22T03:45:18.414Z,95887.84
2023-05-22T03:47:46.726Z,95889.75
2023-05-22T03:50:15.028Z,95891.09
2023-05-22T03:52:43.317Z,95890.78
2023-05-22T03:55:12.096Z,95893.50
2023-05-22T03:57:40.762Z,95899.19
2023-05-22T04:00:12.622Z,95894.28
2023-05-22T04:02:45.317Z,95897.84
2023-05-22T04:05:13.896Z,95892.16
2023-05-22T04:07:42.184Z,95897.94
2023-05-22T04:10:11.191Z,95895.00
2023-05-22T04:12:39.453Z,95895.00
2023-05-22T04:15:10.372Z,95898.81
2023-05-22T04:17:40.884Z,95899.31
2023-05-22T04:20:11.268Z,95904.38
2023-05-22T04:22:39.893Z,95907.06
2023-05-22T04:25:08.707Z,95901.69
2023-05-22T04:27:38.162Z,95913.72
2023-05-22T04:30:08.877Z,95902.41
2023-05-22T04:32:38.614Z,95904.88
2023-05-22T04:35:07.418Z,95903.31
2023-05-22T04:37:35.912Z,95908.97
2023-05-22T04:40:07.440Z,95907.75
2023-05-22T04:42:35.972Z,95909.41
2023-05-22T04:45:04.445Z,95901.22
2023-05-22T04:47:32.958Z,95894.44
2023-05-22T04:50:03.930Z,95901.41
2023-05-22T04:52:32.238Z,95903.34
2023-05-22T04:55:01.123Z,95903.34
2023-05-22T04:57:30.149Z,95905.09
2023-05-22T04:59:58.731Z,95910.44
2023-05-22T05:02:27.016Z,95904.34
2023-05-22T05:04:55.347Z,95910.34
2023-05-22T05:07:25.284Z,95906.00
2023-05-22T05:09:53.611Z,95916.00
2023-05-22T05:12:21.904Z,95910.94
2023-05-22T05:14:50.216Z,95914.91
2023-05-22T05:17:18.455Z,95903.28
2023-05-22T05:19:46.715Z,95905.19
2023-05-22T05:22:15.001Z,95909.97
2023-05-22T05:24:44.578Z,95907.94
2023-05-22T05:27:12.907Z,95914.75
2023-05-22T05:29:41.250Z,95915.19
2023-05-22T05:32:09.924Z,95921.75
2023-05-22T05:34:38.263Z,95916.13
2023-05-22T05:37:06.927Z,95924.78
2023-05-22T05:39:35.182Z,95919.09
2023-05-22T05:42:04.997Z,95925.81
2023-05-22T05:44:33.318Z,95917.13
2023-05-22T05:47:02.133Z,95914.28
2023-05-22T05:49:30.389Z,95919.75
2023-05-22T05:51:58.695Z,95928.69
2023-05-22T05:54:27.320Z,95927.84
2023-05-22T05:56:55.739Z,95921.81
2023-05-22T05:59:25.540Z,95927.97
2023-05-22T06:01:54.020Z,95920.22
2023-05-22T06:04:22.511Z,95921.50
2023-05-22T06:06:51.830Z,95917.97
2023-05-22T06:09:20.570Z,95922.19
2023-05-22T06:11:48.855Z,95925.75
2023-05-22T06:14:17.120Z,95927.91
2023-05-22T06:16:46.939Z,95920.25
2023-05-22T06:19:16.203Z,95922.34
2023-05-22T06:21:44.621Z,95916.97
2023-05-22T06:24:12.947Z,95923.81
2023-05-22T06:26:41.202Z,95926.69
2023-05-22T06:29:09.502Z,95921.84
2023-05-22T06:31:38.525Z,95920.09
2023-05-22T06:34:08.334Z,95917.69
2023-05-22T06:36:37.505Z,95922.69
2023-05-22T06:39:05.828Z,95925.84
2023-05-22T06:41:35.604Z,95919.81
2023-05-22T06:44:05.473Z,95920.66
2023-05-22T06:46:33.809Z,95929.63
2023-05-22T06:49:02.173Z,95933.16
2023-05-22T06:51:32.743Z,95928.03
2023-05-22T06:54:01.095Z,95938.25
2023-05-22T06:56:29.379Z,95930.69
2023-05-22T06:58:58.676Z,95930.00
2023-05-22T07:01:29.237Z,95937.53
2023-05-22T07:03:58.871Z,95940.28
2023-05-22T07:06:27.505Z,95939.19
2023-05-22T07:08:57.640Z,95934.31
2023-05-22T07:11:25.936Z,95938.75
2023-05-22T07:13:54.181Z,95931.47
2023-05-22T07:16:23.430Z,95934.25
2023-05-22T07:18:52.253Z,95939.75
2023-05-22T07:21:23.742Z,95936.56
2023-05-22T07:23:52.291Z,95942.41
2023-05-22T07:26:22.647Z,95942.41
2023-05-22T07:28:50.857Z,95953.94
2023-05-22T07:31:19.105Z,95954.44
2023-05-22T07:33:47.461Z,95952.34
2023-05-22T07:36:16.797Z,95945.94
2023-05-22T07:38:45.062Z,95949.88
2023-05-22T07:41:13.332Z,95948.19
2023-05-22T07:43:42.963Z,95953.91
2023-05-22T07:46:11.984Z,95953.44
2023-05-22T07:48:40.296Z,95950.03
2023-05-22T07:51:08.918Z,95950.25
2023-05-22T07:53:37.282Z,95950.72
2023-05-22T07:56:05.733Z,95949.94
2023-05-22T07:58:34.709Z,95955.06
2023-05-22T08:01:06.307Z,95956.16
2023-05-22T08:03:36.646Z,95947.03
2023-05-22T08:06:05.588Z,95950.16
2023-05-22T08:08:34.683Z,95948.22
2023-05-22T08:11:04.401Z,95944.00
2023-05-22T08:13:33.337Z,95949.22
2023-05-22T08:16:01.836Z,95949.53
2023-05-22T08:18:31.588Z,95942.81
2023-05-22T08:21:00.827Z,95943.34
2023-05-22T08:23:29.952Z,95943.34
2023-05-22T08:25:58.956Z,95948.81
2023-05-22T08:28:27.370Z,95940.44
2023-05-22T08:30:55.965Z,95933.78
2023-05-22T08:33:24.457Z,95940.59
2023-05-22T08:35:54.208Z,95932.06
2023-05-22T08:38:22.567Z,95931.91
2023-05-22T08:40:51.690Z,95924.47
2023-05-22T08:43:21.241Z,95936.13
2023-05-22T08:45:55.995Z,95936.56
2023-05-22T08:48:24.641Z,95924.50
2023-05-22T08:50:57.555Z,95932.16
2023-05-22T08:53:26.643Z,95931.81
2023-05-22T08:55:55.379Z,95920.44
2023-05-22T08:58:23.764Z,95917.34
2023-05-22T09:00:52.746Z,95923.59
2023-05-22T09:03:21.881Z,95918.06
2023-05-22T09:05:50.670Z,95928.44
2023-05-22T09:08:21.365Z,95919.75
2023-05-22T09:10:49.979Z,95924.25
2023-05-22T09:13:28.291Z,95927.00
2023-05-22T09:16:00.067Z,95930.19
2023-05-22T09:18:28.941Z,95936.91
2023-05-22T09:20:59.020Z,95927.47
2023-05-22T09:23:29.905Z,95933.66
2023-05-22T09:25:59.485Z,95926.69
2023-05-22T09:28:28.992Z,95939.84
2023-05-22T09:30:57.379Z,95936.22
2023-05-22T09:33:25.862Z,95925.84
2023-05-22T09:35:54.529Z,95934.72
2023-05-22T09:38:24.417Z,95940.59
2023-05-22T09:40:55.674Z,95938.41
2023-05-22T09:43:25.749Z,95935.78
2023-05-22T09:46:04.261Z,95940.28
2023-05-22T09:48:35.267Z,95933.25
2023-05-22T09:51:04.465Z,95934.09
2023-05-22T09:53:34.168Z,95933.75
2023-05-22T09:56:07.390Z,95935.47
2023-05-22T09:58:36.809Z,95938.47
2023-05-22T10:01:05.250Z,95935.16
2023-05-22T10:03:35.378Z,95932.72
2023-05-22T10:06:04.100Z,95933.78
2023-05-22T10:08:38.336Z,95930.78
2023-05-22T10:11:08.366Z,95938.59
2023-05-22T10:13:36.767Z,95928.88
2023-05-22T10:16:07.599Z,95929.84
2023-05-22T10:18:37.121Z,95927.00
2023-05-22T10:21:05.857Z,95916.84
2023-05-22T10:23:34.305Z,95929.66
2023-05-22T10:26:03.105Z,95930.25
2023-05-22T10:28:39.095Z,95931.47
2023-05-22T10:31:14.213Z,95929.91
2023-05-22T10:33:46.148Z,95924.75
2023-05-22T10:36:20.116Z,95922.34
2023-05-22T10:38:58.206Z,95923.97
2023-05-22T10:41:27.322Z,95925.03
2023-05-22T10:43:57.841Z,95932.94
2023-05-22T10:46:26.255Z,95922.19
2023-05-22T10:48:56.392Z,95919.31
2023-05-22T10:51:24.668Z,95920.94
2023-05-22T10:53:54.334Z,95909.22
2023-05-22T10:56:25.241Z,95918.00
2023-05-22T10:58:59.184Z,95916.50
2023-05-22T11:01:27.817Z,95913.25
2023-05-22T11:03:57.987Z,95914.84
2023-05-22T11:06:34.068Z,95906.44
2023-05-22T11:09:21.808Z,95903.72
2023-05-22T11:12:13.934Z,95906.47
2023-05-22T11:14:43.612Z,95904.44
2023-05-22T11:17:13.642Z,95899.09
2023-05-22T11:19:42.322Z,95900.19
2023-05-22T11:22:10.644Z,95907.16
2023-05-22T11:24:39.019Z,95901.25
2023-05-22T11:27:08.340Z,95905.31
2023-05-22T11:29:38.403Z,95902.72
2023-05-22T11:32:09.799Z,95903.38
2023-05-22T11:34:40.733Z,95896.56
2023-05-22T11:37:09.756Z,95901.44
2023-05-22T11:39:38.087Z,95893.16
2023-05-22T11:42:06.986Z,95893.69
2023-05-22T11:44:35.248Z,95891.34
2023-05-22T11:47:04.246Z,95893.66
2023-05-22T11:49:33.949Z,95887.59
2023-05-22T11:52:02.225Z,95889.50
2023-05-22T11:54:33.099Z,95887.28
2023-05-22T11:57:01.373Z,95886.00
2023-05-22T11:59:29.668Z,95883.94
2023-05-22T12:01:58.110Z,95878.53
2023-05-22T12:04:26.597Z,95889.75
2023-05-22T12:06:56.729Z,95881.97
2023-05-22T12:09:25.128Z,95877.78
2023-05-22T12:11:56.247Z,95880.91
2023-05-22T12:14:27.549Z,95880.78
2023-05-22T12:16:56.350Z,95878.25
2023-05-22T12:19:26.665Z,95884.91
2023-05-22T12:21:56.426Z,95880.91
2023-05-22T12:24:24.737Z,95876.06
2023-05-22T12:26:53.312Z,95878.34
2023-05-22T12:29:23.969Z,95871.22
2023-05-22T12:31:52.542Z,95867.81
2023-05-22T12:34:20.857Z,95873.91
2023-05-22T12:36:49.285Z,95877.63
2023-05-22T12:39:20.056Z,95867.25
2023-05-22T12:41:48.463Z,95866.53
2023-05-22T12:44:17.109Z,95864.09
2023-05-22T12:46:45.475Z,95858.63
2023-05-22T12:49:13.805Z,95865.47
2023-05-22T12:51:42.126Z,95855.81
2023-05-22T12:54:10.457Z,95857.88
2023-05-22T12:56:40.147Z,95854.81
2023-05-22T12:59:08.782Z,95857.34
2023-05-22T13:01:37.106Z,95860.41
2023-05-22T13:04:05.406Z,95856.91
2023-05-22T13:06:33.749Z,95845.72
2023-05-22T13:09:02.004Z,95839.81
2023-05-22T13:11:30.327Z,95834.22
2023-05-22T13:14:00.035Z,95833.19
2023-05-22T13:16:28.503Z,95834.97
2023-05-22T13:18:56.921Z,95834.53
2023-05-22T13:21:26.419Z,95835.38
2023-05-22T13:23:55.050Z,95829.13
2023-05-22T13:26:23.373Z,95822.63
2023-05-22T13:28:51.741Z,95815.31
2023-05-22T13:31:21.395Z,95820.19
2023-05-22T13:33:49.704Z,95822.72
2023-05-22T13:36:19.154Z,95823.66
2023-05-22T13:38:47.473Z,95818.06
2023-05-22T13:41:17.701Z,95817.53
2023-05-22T13:43:46.029Z,95822.47
2023-05-22T13:46:14.309Z,95816.22
2023-05-22T13:48:44.028Z,95813.56
2023-05-22T13:51:12.373Z,95817.31
2023-05-22T13:53:40.707Z,95803.66
2023-05-22T13:56:09.008Z,95807.66
2023-05-22T13:58:37.421Z,95804.84
2023-05-22T14:01:05.957Z,95803.50
2023-05-22T14:03:34.604Z,95799.59
2023-05-22T14:06:04.329Z,95795.25
2023-05-22T14:08:32.575Z,95794.34
2023-05-22T14:11:01.067Z,95789.59
2023-05-22T14:13:29.347Z,95786.03
2023-05-22T14:15:57.614Z,95789.16
2023-05-22T14:18:25.970Z,95789.47
2023-05-22T14:20:54.267Z,95787.34
2023-05-22T14:23:23.974Z,95781.00
2023-05-22T14:25:52.336Z,95784.97
2023-05-22T14:28:20.616Z,95785.56
2023-05-22T14:30:49.039Z,95780.41
2023-05-22T14:33:17.417Z,95776.84
2023-05-22T14:35:45.998Z,95779.19
2023-05-22T14:38:14.291Z,95780.47
2023-05-22T14:40:44.047Z,95780.44
2023-05-22T14:43:12.361Z,95771.03
2023-05-22T14:45:41.045Z,95777.31
2023-05-22T14:48:11.455Z,95780.13
2023-05-22T14:50:39.817Z,95776.06
2023-05-22T14:53:08.187Z,95789.16
2023-05-22T14:55:36.759Z,95791.84
2023-05-22T14:58:06.444Z,95792.81
2023-05-22T15:00:34.982Z,95797.16
2023-05-22T15:03:03.571Z,95794.78
2023-05-22T15:05:31.901Z,95793.03
2023-05-22T15:08:00.294Z,95790.19
2023-05-22T15:10:29.001Z,95795.22
2023-05-22T15:12:57.613Z,95791.97
2023-05-22T15:15:27.530Z,95785.56
2023-05-22T15:17:56.332Z,95784.47
2023-05-22T15:20:24.714Z,95787.16
2023-05-22T15:22:53.133Z,95785.16
2023-05-22T15:25:21.452Z,95786.47
2023-05-22T15:27:49.776Z,95785.56
2023-05-22T15:30:19.137Z,95795.75
2023-05-22T15:32:50.579Z,95790.75
2023-05-22T15:35:18.915Z,95795.06
2023-05-22T15:37:47.185Z,95786.69
2023-05-22T15:40:18.334Z,95797.53
2023-05-22T15:42:46.618Z,95796.19
2023-05-22T15:45:14.916Z,95786.56
2023-05-22T15:47:43.397Z,95784.28
2023-05-22T15:50:13.195Z,95781.50
2023-05-22T15:52:41.561Z,95777.59
2023-05-22T15:55:10.123Z,95787.94
2023-05-22T15:57:39.258Z,95782.81
2023-05-22T16:00:08.899Z,95774.06
2023-05-22T16:02:37.252Z,95774.63
2023-05-22T16:05:06.446Z,95763.25
2023-05-22T16:07:36.161Z,95764.06
2023-05-22T16:10:05.111Z,95759.78
2023-05-22T16:12:33.405Z,95769.19
2023-05-22T16:15:03.292Z,95761.53
2023-05-22T16:17:33.027Z,95768.06
2023-05-22T16:20:01.468Z,95766.56
2023-05-22T16:25:19.442Z,95774.00
2023-05-22T16:27:47.559Z,95770.28
2023-05-22T16:30:17.281Z,95772.19
2023-05-22T16:32:46.589Z,95771.13
2023-05-22T16:35:15.336Z,95766.78
2023-05-22T16:37:43.592Z,95768.13
2023-05-22T16:40:12.441Z,95770.91
2023-05-22T16:42:42.139Z,95766.44
2023-05-22T16:45:10.800Z,95761.75
2023-05-22T16:47:39.217Z,95764.50
2023-05-22T16:50:09.191Z,95772.31
2023-05-22T16:52:37.700Z,95769.16
2023-05-22T16:55:06.790Z,95776.13
2023-05-22T16:57:35.132Z,95764.38
2023-05-22T17:00:06.962Z,95761.38
2023-05-22T17:02:35.513Z,95761.31
2023-05-22T17:05:03.951Z,95764.19
2023-05-22T17:07:32.650Z,95771.28
2023-05-22T17:10:01.184Z,95761.00
2023-05-22T17:12:29.548Z,95762.81
2023-05-22T17:14:57.872Z,95754.78
2023-05-22T17:17:27.632Z,95753.31
2023-05-22T17:19:55.770Z,95756.69
2023-05-22T17:22:23.873Z,95759.81
2023-05-22T17:24:51.874Z,95765.91
2023-05-22T17:27:31.995Z,95757.84
2023-05-22T17:30:03.394Z,95755.66
2023-05-22T17:32:32.976Z,95763.19
2023-05-22T17:35:01.724Z,95764.88
2023-05-22T17:37:29.712Z,95767.41
2023-05-22T17:39:57.750Z,95771.09
2023-05-22T17:42:25.971Z,95773.84
2023-05-22T17:44:53.930Z,95775.31
2023-05-22T17:47:22.010Z,95774.06
2023-05-22T17:49:51.476Z,95777.69
2023-05-22T17:52:19.482Z,95774.84
2023-05-22T17:54:49.871Z,95772.88
2023-05-22T17:57:17.872Z,95769.09
2023-05-22T17:59:45.940Z,95773.50
2023-05-22T18:02:13.946Z,95775.75
2023-05-22T18:04:41.962Z,95769.34
2023-05-22T18:07:11.298Z,95775.31
2023-05-22T18:09:39.300Z,95772.03
2023-05-22T18:12:10.893Z,95776.41
2023-05-22T18:14:40.921Z,95775.47
2023-05-22T18:17:08.908Z,95777.72
2023-05-22T18:19:36.868Z,95775.16
2023-05-22T18:22:04.973Z,95775.00
2023-05-22T18:24:36.531Z,95768.94
2023-05-22T18:27:04.691Z,95773.72
2023-05-22T18:29:32.661Z,95781.28
2023-05-22T18:32:00.871Z,95775.97
2023-05-22T18:34:29.801Z,95778.63
2023-05-22T18:36:59.627Z,95789.28
2023-05-22T18:39:27.631Z,95782.75
2023-05-22T18:41:58.424Z,95791.81
2023-05-22T18:44:26.412Z,95790.78
2023-05-22T18:46:54.568Z,95789.66
2023-05-22T18:49:22.591Z,95800.56
2023-05-22T18:51:50.946Z,95801.28
2023-05-22T18:54:19.035Z,95800.59
2023-05-22T18:56:47.086Z,95807.22
2023-05-22T18:59:16.548Z,95799.97
2023-05-22T19:01:45.764Z,95812.28
2023-05-22T19:04:13.821Z,95813.22
2023-05-22T19:06:42.254Z,95824.28
2023-05-22T19:09:10.866Z,95824.09
2023-05-22T19:11:38.959Z,95833.78
2023-05-22T19:14:06.949Z,95830.41
2023-05-22T19:16:36.375Z,95837.31
2023-05-22T19:19:04.420Z,95837.69
2023-05-22T19:21:32.651Z,95834.00
2023-05-22T19:24:00.819Z,95832.91
2023-05-22T19:26:28.915Z,95838.56
2023-05-22T19:28:59.333Z,95842.53
2023-05-22T19:31:27.668Z,95834.13
2023-05-22T19:33:57.181Z,95836.06
2023-05-22T19:36:25.288Z,95841.59
2023-05-22T19:38:53.770Z,95845.19
2023-05-22T19:41:23.142Z,95852.81
2023-05-22T19:43:51.906Z,95849.63
2023-05-22T19:46:19.979Z,95851.13
2023-05-22T19:48:48.135Z,95855.53
2023-05-22T19:51:17.540Z,95860.69
2023-05-22T19:53:45.633Z,95859.47
2023-05-22T19:56:13.724Z,95865.41
2023-05-22T19:58:41.932Z,95865.38
2023-05-22T20:01:10.274Z,95869.75
2023-05-22T20:03:40.106Z,95863.31
2023-05-22T20:06:08.327Z,95864.41
2023-05-22T20:08:37.731Z,95873.47
2023-05-22T20:11:05.845Z,95873.44
2023-05-22T20:13:33.963Z,95870.06
2023-05-22T20:16:04.120Z,95877.28
2023-05-22T20:18:32.504Z,95880.28
2023-05-22T20:21:00.524Z,95872.50
2023-05-22T20:23:28.542Z,95868.28
2023-05-22T20:25:57.944Z,95878.53
2023-05-22T20:28:26.307Z,95883.00
2023-05-22T20:30:54.409Z,95883.63
2023-05-22T20:33:22.628Z,95889.13
2023-05-22T20:35:53.264Z,95875.06
2023-05-22T20:38:22.450Z,95894.44
2023-05-22T20:40:52.045Z,95894.25
2023-05-22T20:43:21.615Z,95896.16
2023-05-22T20:45:50.450Z,95900.84
2023-05-22T20:48:18.480Z,95892.41
2023-05-22T20:50:47.616Z,95902.06
2023-05-22T20:53:15.656Z,95906.38
2023-05-22T20:55:43.682Z,95902.78
2023-05-22T20:58:11.688Z,95894.28
2023-05-22T21:00:42.076Z,95900.94
2023-05-22T21:03:10.413Z,95897.88
2023-05-22T21:05:38.656Z,95895.03
2023-05-22T21:08:06.875Z,95893.56
2023-05-22T21:10:34.904Z,95892.44
2023-05-22T21:13:03.127Z,95895.69
2023-05-22T21:15:31.136Z,95894.19
2023-05-22T21:18:00.523Z,95895.41
2023-05-22T21:20:28.619Z,95900.53
2023-05-22T21:22:56.612Z,95905.00
2023-05-22T21:25:24.667Z,95895.38
2023-05-22T21:27:54.519Z,95902.94
2023-05-22T21:30:22.798Z,95888.22
2023-05-22T21:32:50.805Z,95889.84
2023-05-22T21:35:20.212Z,95896.56
2023-05-22T21:37:48.174Z,95896.84
2023-05-22T21:40:16.233Z,95893.47
2023-05-22T21:42:46.546Z,95889.94
2023-05-22T21:45:15.289Z,95903.66
2023-05-22T21:47:43.379Z,95899.56
2023-05-22T21:50:11.801Z,95910.66
2023-05-22T21:52:41.174Z,95910.59
2023-05-22T21:55:09.387Z,95910.06
2023-05-22T21:57:37.458Z,95901.88
2023-05-22T22:00:05.741Z,95895.03
2023-05-22T22:02:33.765Z,95895.31
2023-05-22T22:05:01.761Z,95896.16
2023-05-22T22:07:29.737Z,95893.06
2023-05-22T22:09:59.081Z,95891.06
2023-05-22T22:12:27.162Z,95891.09
2023-05-22T22:14:55.218Z,95885.97
2023-05-22T22:17:24.049Z,95896.56
2023-05-22T22:19:53.598Z,95885.53
2023-05-22T22:22:22.762Z,95890.38
2023-05-22T22:24:50.844Z,95892.69
2023-05-22T22:27:20.830Z,95894.06
2023-05-22T22:29:48.861Z,95899.34
2023-05-22T22:32:16.932Z,95888.81
2023-05-22T22:34:45.323Z,95888.00
2023-05-22T22:37:13.977Z,95893.06
2023-05-22T22:39:41.961Z,95888.72
2023-05-22T22:42:09.960Z,95886.63
2023-05-22T22:44:39.357Z,95892.66
2023-05-22T22:47:07.935Z,95891.56
2023-05-22T22:49:37.225Z,95889.94
2023-05-22T22:52:05.430Z,95892.81
2023-05-22T22:54:33.720Z,95890.50
2023-05-22T22:57:01.966Z,95887.06
2023-05-22T22:59:29.987Z,95889.53
2023-05-22T23:01:59.866Z,95893.41
2023-05-22T23:04:28.143Z,95888.50
2023-05-22T23:06:57.589Z,95895.19
2023-05-22T23:09:25.601Z,95899.75
2023-05-22T23:11:53.573Z,95902.28
2023-05-22T23:14:21.559Z,95912.78
2023-05-22T23:16:49.543Z,95911.72
2023-05-22T23:19:18.965Z,95908.63
2023-05-22T23:21:47.026Z,95912.72
2023-05-22T23:24:15.089Z,95919.03
2023-05-22T23:26:43.056Z,95919.81
2023-05-22T23:29:11.090Z,95928.91
2023-05-22T23:31:40.435Z,95917.25
2023-05-22T23:34:08.623Z,95919.88
2023-05-22T23:36:37.965Z,95914.34
2023-05-22T23:39:05.960Z,95916.72
2023-05-22T23:41:33.990Z,95921.63
2023-05-22T23:44:02.095Z,95921.72
2023-05-22T23:46:30.135Z,95923.97
2023-05-22T23:48:58.193Z,95923.81
2023-05-22T23:51:26.180Z,95923.94
2023-05-22T23:53:55.615Z,95927.00
2023-05-22T23:56:23.574Z,95922.66
2023-05-22T23:58:51.630Z,95920.53
